createdAt,value
2022-10-20T00:01:54.759Z,101884.36
2022-10-20T00:04:26.924Z,101879.85
2022-10-20T00:06:59.150Z,101877.19
2022-10-20T00:09:31.042Z,101890.88
2022-10-20T00:12:03.008Z,101886.61
2022-10-20T00:14:34.988Z,101884.01
2022-10-20T00:17:06.970Z,101886.86
2022-10-20T00:19:38.773Z,101871.20
2022-10-20T00:22:10.935Z,101890.42
2022-10-20T00:24:42.886Z,101887.77
2022-10-20T00:27:14.965Z,101883.81
2022-10-20T00:29:48.905Z,101884.59
2022-10-20T00:32:21.805Z,101878.77
2022-10-20T00:34:53.914Z,101885.75
2022-10-20T00:37:26.438Z,101877.45
2022-10-20T00:39:58.329Z,101880.89
2022-10-20T00:42:30.311Z,101881.35
2022-10-20T00:45:03.491Z,101884.05
2022-10-20T00:47:42.109Z,101854.80
2022-10-20T00:50:17.500Z,101879.70
2022-10-20T00:52:50.450Z,101874.95
2022-10-20T00:55:26.443Z,101874.76
2022-10-20T00:58:01.134Z,101873.17
2022-10-20T01:00:33.831Z,101872.81
2022-10-20T01:03:08.749Z,101874.65
2022-10-20T01:05:40.713Z,101870.04
2022-10-20T01:08:12.817Z,101867.91
2022-10-20T01:10:53.278Z,101859.85
2022-10-20T01:13:37.995Z,101858.98
2022-10-20T01:16:17.860Z,101858.46
2022-10-20T01:19:02.003Z,101856.52
2022-10-20T01:22:09.988Z,101854.61
2022-10-20T01:24:55.789Z,101860.72
2022-10-20T01:27:34.725Z,101825.13
2022-10-20T01:30:13.727Z,101855.40
2022-10-20T01:32:56.253Z,101853.35
2022-10-20T01:35:39.369Z,101849.39
2022-10-20T01:38:22.313Z,101845.52
2022-10-20T01:41:00.964Z,101842.25
2022-10-20T01:43:36.562Z,101841.19
2022-10-20T01:46:11.413Z,101832.91
2022-10-20T01:48:43.927Z,101834.70
2022-10-20T01:51:16.679Z,101835.65
2022-10-20T01:53:48.623Z,101834.25
2022-10-20T01:56:27.441Z,101832.77
2022-10-20T01:59:20.157Z,101825.55
2022-10-20T02:02:12.915Z,101820.63
2022-10-20T02:04:55.009Z,101818.32
2022-10-20T02:07:30.583Z,101820.02
2022-10-20T02:10:10.865Z,101810.89
2022-10-20T02:12:46.643Z,101808.78
2022-10-20T02:15:24.464Z,101808.02
2022-10-20T02:18:01.044Z,101803.29
2022-10-20T02:20:35.664Z,101810.02
2022-10-20T02:23:07.886Z,101809.03
2022-10-20T02:25:41.608Z,101805.59
2022-10-20T02:28:15.952Z,101805.92
2022-10-20T02:30:48.926Z,101811.23
2022-10-20T02:33:22.032Z,101808.64
2022-10-20T02:36:00.166Z,101812.58
2022-10-20T02:38:32.268Z,101799.19
2022-10-20T02:41:04.368Z,101814.66
2022-10-20T02:43:36.903Z,101815.38
2022-10-20T02:46:09.100Z,101817.17
2022-10-20T02:48:41.283Z,101820.89
2022-10-20T02:51:13.378Z,101826.48
2022-10-20T02:53:46.490Z,101826.00
2022-10-20T02:56:18.840Z,101815.33
2022-10-20T02:58:51.205Z,101832.69
2022-10-20T03:01:24.947Z,101817.55
2022-10-20T03:03:59.872Z,101834.45
2022-10-20T03:06:31.920Z,101833.00
2022-10-20T03:09:03.929Z,101840.95
2022-10-20T03:11:35.966Z,101842.73
2022-10-20T03:14:08.388Z,101846.48
2022-10-20T03:16:40.654Z,101847.55
2022-10-20T03:19:12.559Z,101846.94
2022-10-20T03:21:44.684Z,101837.02
2022-10-20T03:24:16.741Z,101837.42
2022-10-20T03:26:48.947Z,101835.50
2022-10-20T03:29:21.051Z,101836.84
2022-10-20T03:31:52.877Z,101841.14
2022-10-20T03:34:25.504Z,101840.82
2022-10-20T03:36:57.364Z,101842.41
2022-10-20T03:39:30.169Z,101845.55
2022-10-20T03:42:02.197Z,101828.98
2022-10-20T03:44:34.635Z,101842.38
2022-10-20T03:47:06.650Z,101840.52
2022-10-20T03:49:38.523Z,101839.05
2022-10-20T03:52:10.533Z,101844.63
2022-10-20T03:54:42.549Z,101841.26
2022-10-20T03:57:14.343Z,101844.98
2022-10-20T03:59:46.513Z,101844.74
2022-10-20T04:02:31.141Z,101840.29
2022-10-20T04:05:03.260Z,101837.16
2022-10-20T04:07:35.347Z,101835.14
2022-10-20T04:10:08.657Z,101836.48
2022-10-20T04:12:40.687Z,101836.13
2022-10-20T04:15:13.589Z,101826.80
2022-10-20T04:17:45.453Z,101824.34
2022-10-20T04:20:18.361Z,101823.55
2022-10-20T04:22:50.499Z,101818.39
2022-10-20T04:25:22.833Z,101818.77
2022-10-20T04:27:54.746Z,101815.07
2022-10-20T04:30:26.709Z,101817.19
2022-10-20T04:32:58.644Z,101811.75
2022-10-20T04:35:30.508Z,101806.48
2022-10-20T04:38:02.403Z,101810.33
2022-10-20T04:40:34.549Z,101808.27
2022-10-20T04:43:07.005Z,101805.47
2022-10-20T04:45:39.578Z,101799.03
2022-10-20T04:48:11.765Z,101794.07
2022-10-20T04:50:43.773Z,101789.00
2022-10-20T04:53:17.172Z,101781.48
2022-10-20T04:55:56.890Z,101778.77
2022-10-20T04:58:28.905Z,101777.81
2022-10-20T05:01:05.107Z,101780.31
2022-10-20T05:03:37.919Z,101775.78
2022-10-20T05:06:15.401Z,101768.52
2022-10-20T05:08:51.604Z,101768.45
2022-10-20T05:11:26.473Z,101763.67
2022-10-20T05:13:58.888Z,101763.77
2022-10-20T05:16:31.230Z,101756.46
2022-10-20T05:19:03.115Z,101758.92
2022-10-20T05:21:35.168Z,101755.55
2022-10-20T05:24:08.362Z,101753.27
2022-10-20T05:26:40.256Z,101758.07
2022-10-20T05:29:13.670Z,101757.46
2022-10-20T05:31:46.402Z,101764.98
2022-10-20T05:34:18.272Z,101761.52
2022-10-20T05:36:53.353Z,101761.86
2022-10-20T05:39:25.408Z,101759.70
2022-10-20T05:41:57.346Z,101768.12
2022-10-20T05:44:29.457Z,101770.73
2022-10-20T05:47:02.540Z,101774.90
2022-10-20T05:49:34.890Z,101773.60
2022-10-20T05:52:07.261Z,101774.39
2022-10-20T05:54:39.196Z,101777.08
2022-10-20T05:57:11.177Z,101779.45
2022-10-20T05:59:45.076Z,101783.54
2022-10-20T06:02:17.056Z,101786.08
2022-10-20T06:04:49.047Z,101794.83
2022-10-20T06:07:20.997Z,101798.41
2022-10-20T06:09:53.435Z,101799.61
2022-10-20T06:12:25.854Z,101804.31
2022-10-20T06:14:57.891Z,101796.20
2022-10-20T06:17:30.144Z,101796.04
2022-10-20T06:20:02.497Z,101795.22
2022-10-20T06:22:34.725Z,101797.19
2022-10-20T06:25:08.916Z,101793.23
2022-10-20T06:27:42.530Z,101798.04
2022-10-20T06:30:14.847Z,101795.66
2022-10-20T06:32:46.933Z,101802.89
2022-10-20T06:35:19.022Z,101798.77
2022-10-20T06:37:50.955Z,101801.73
2022-10-20T06:40:23.110Z,101803.27
2022-10-20T06:45:28.505Z,101801.98
2022-10-20T06:48:00.735Z,101806.58
2022-10-20T06:50:34.048Z,101810.20
2022-10-20T06:53:07.898Z,101815.00
2022-10-20T06:55:39.981Z,101813.67
2022-10-20T06:58:12.472Z,101818.90
2022-10-20T07:00:44.412Z,101817.64
2022-10-20T07:03:16.606Z,101818.38
2022-10-20T07:05:50.109Z,101804.08
2022-10-20T07:08:22.049Z,101826.30
2022-10-20T07:11:02.784Z,101825.92
2022-10-20T07:13:35.922Z,101822.20
2022-10-20T07:16:09.915Z,101822.47
2022-10-20T07:18:45.476Z,101821.18
2022-10-20T07:21:19.044Z,101821.96
2022-10-20T07:23:51.894Z,101818.86
2022-10-20T07:26:25.849Z,101815.64
2022-10-20T07:29:00.940Z,101810.80
2022-10-20T07:31:34.509Z,101814.75
2022-10-20T07:34:23.815Z,101791.27
2022-10-20T07:36:58.651Z,101805.97
2022-10-20T07:39:30.838Z,101808.28
2022-10-20T07:42:02.756Z,101808.75
2022-10-20T07:44:35.124Z,101809.88
2022-10-20T07:47:07.317Z,101807.96
2022-10-20T07:49:44.235Z,101796.56
2022-10-20T07:52:17.099Z,101810.25
2022-10-20T07:54:49.257Z,101805.73
2022-10-20T07:57:21.132Z,101808.68
2022-10-20T07:59:53.298Z,101809.14
2022-10-20T08:02:25.214Z,101808.55
2022-10-20T08:04:57.478Z,101802.48
2022-10-20T08:07:29.401Z,101806.17
2022-10-20T08:10:01.680Z,101808.85
2022-10-20T08:12:34.074Z,101790.61
2022-10-20T08:15:11.497Z,101802.45
2022-10-20T08:17:46.206Z,101802.36
2022-10-20T08:20:27.511Z,101790.45
2022-10-20T08:22:59.349Z,101782.72
2022-10-20T08:25:31.672Z,101802.88
2022-10-20T08:28:04.006Z,101801.54
2022-10-20T08:30:36.082Z,101804.48
2022-10-20T08:33:07.979Z,101803.22
2022-10-20T08:35:39.969Z,101802.19
2022-10-20T08:38:11.840Z,101800.70
2022-10-20T08:40:45.532Z,101797.73
2022-10-20T08:43:21.309Z,101795.73
2022-10-20T08:45:53.621Z,101793.80
2022-10-20T08:48:28.747Z,101795.14
2022-10-20T08:51:01.616Z,101791.48
2022-10-20T08:53:40.796Z,101792.83
2022-10-20T08:56:15.513Z,101789.64
2022-10-20T08:58:46.491Z,101787.77
2022-10-20T09:01:23.340Z,101785.71
2022-10-20T09:04:00.719Z,101782.23
2022-10-20T09:06:33.043Z,101781.27
2022-10-20T09:09:05.162Z,101784.18
2022-10-20T09:11:41.291Z,101781.35
2022-10-20T09:14:13.513Z,101776.77
2022-10-20T09:16:59.917Z,101772.73
2022-10-20T09:19:32.741Z,101773.64
2022-10-20T09:22:08.119Z,101776.43
2022-10-20T09:24:40.881Z,101753.45
2022-10-20T09:27:25.733Z,101773.43
2022-10-20T09:29:57.813Z,101777.98
2022-10-20T09:32:52.919Z,101767.20
2022-10-20T09:35:31.050Z,101772.58
2022-10-20T09:38:15.378Z,101771.71
2022-10-20T09:40:55.983Z,101773.52
2022-10-20T09:43:29.087Z,101775.27
2022-10-20T09:46:09.917Z,101776.14
2022-10-20T09:48:47.222Z,101774.36
2022-10-20T09:51:22.403Z,101773.83
2022-10-20T09:54:02.906Z,101774.98
2022-10-20T09:56:36.961Z,101770.29
2022-10-20T09:59:19.843Z,101769.34
2022-10-20T10:02:00.082Z,101766.36
2022-10-20T10:04:37.789Z,101755.94
2022-10-20T10:07:32.322Z,101754.13
2022-10-20T10:10:08.541Z,101747.33
2022-10-20T10:12:40.955Z,101744.17
2022-10-20T10:15:32.331Z,101746.84
2022-10-20T10:18:15.853Z,101742.68
2022-10-20T10:20:47.825Z,101741.55
2022-10-20T10:23:24.018Z,101744.40
2022-10-20T10:25:59.320Z,101722.61
2022-10-20T10:28:41.977Z,101738.21
2022-10-20T10:31:25.399Z,101731.11
2022-10-20T10:34:21.359Z,101727.51
2022-10-20T10:36:53.317Z,101720.73
2022-10-20T10:39:25.333Z,101720.45
2022-10-20T10:42:09.180Z,101717.38
2022-10-20T10:44:53.810Z,101709.34
2022-10-20T10:47:43.105Z,101707.88
2022-10-20T10:50:30.793Z,101708.63
2022-10-20T10:53:13.938Z,101698.23
2022-10-20T10:55:53.889Z,101694.92
2022-10-20T10:58:36.968Z,101691.27
2022-10-20T11:01:22.899Z,101685.89
2022-10-20T11:04:16.905Z,101684.73
2022-10-20T11:06:58.021Z,101681.52
2022-10-20T11:09:38.157Z,101679.41
2022-10-20T11:12:28.400Z,101680.42
2022-10-20T11:15:19.582Z,101673.02
2022-10-20T11:18:05.111Z,101669.02
2022-10-20T11:20:44.034Z,101647.30
2022-10-20T11:26:20.008Z,101661.09
2022-10-20T11:28:55.336Z,101651.09
2022-10-20T11:31:35.381Z,101642.20
2022-10-20T11:34:13.901Z,101637.14
2022-10-20T11:36:48.744Z,101633.91
2022-10-20T11:39:29.566Z,101634.12
2022-10-20T11:42:14.242Z,101613.31
2022-10-20T11:44:48.935Z,101619.77
2022-10-20T11:47:25.598Z,101615.95
2022-10-20T11:49:57.774Z,101605.73
2022-10-20T11:52:59.098Z,101605.52
2022-10-20T11:55:50.815Z,101604.38
2022-10-20T11:58:53.962Z,101601.92
2022-10-20T12:01:36.558Z,101600.17
2022-10-20T12:04:41.219Z,101594.61
2022-10-20T12:07:32.670Z,101593.10
2022-10-20T12:10:29.695Z,101590.06
2022-10-20T12:13:18.150Z,101584.52
2022-10-20T12:15:52.954Z,101582.41
2022-10-20T12:18:30.296Z,101564.82
2022-10-20T12:21:05.429Z,101576.80
2022-10-20T12:24:02.359Z,101573.16
2022-10-20T12:27:06.188Z,101569.42
2022-10-20T12:30:07.446Z,101566.20
2022-10-20T12:33:17.494Z,101561.32
2022-10-20T12:36:14.799Z,101553.99
2022-10-20T12:38:48.556Z,101548.73
2022-10-20T12:41:30.226Z,101545.29
2022-10-20T12:44:05.820Z,101542.69
2022-10-20T12:46:44.128Z,101534.05
2022-10-20T12:49:28.424Z,101528.48
2022-10-20T12:52:02.183Z,101526.62
2022-10-20T12:54:39.115Z,101523.77
2022-10-20T12:57:31.747Z,101520.15
2022-10-20T13:00:05.735Z,101518.23
2022-10-20T13:02:51.795Z,101520.88
2022-10-20T13:05:45.843Z,101519.76
2022-10-20T13:08:25.205Z,101517.24
2022-10-20T13:11:18.686Z,101525.13
2022-10-20T13:14:07.002Z,101525.08
2022-10-20T13:16:40.145Z,101521.38
2022-10-20T13:19:19.745Z,101519.24
2022-10-20T13:21:52.518Z,101513.88
2022-10-20T13:24:30.936Z,101495.31
2022-10-20T13:27:10.093Z,101502.93
2022-10-20T13:29:43.883Z,101501.61
2022-10-20T13:32:23.375Z,101499.52
2022-10-20T13:35:02.726Z,101500.45
2022-10-20T13:37:49.059Z,101503.73
2022-10-20T13:40:30.972Z,101501.27
2022-10-20T13:43:19.822Z,101500.16
2022-10-20T13:46:13.223Z,101490.52
2022-10-20T13:48:59.418Z,101494.29
2022-10-20T13:51:35.133Z,101495.02
2022-10-20T13:54:08.514Z,101488.95
2022-10-20T13:56:47.387Z,101489.41
2022-10-20T13:59:27.482Z,101486.59
2022-10-20T14:02:03.875Z,101484.16
2022-10-20T14:04:37.993Z,101484.14
2022-10-20T14:07:16.066Z,101480.31
2022-10-20T14:09:57.640Z,101467.13
2022-10-20T14:12:29.802Z,101463.65
2022-10-20T14:15:02.759Z,101463.27
2022-10-20T14:17:38.489Z,101465.38
2022-10-20T14:20:22.199Z,101462.84
2022-10-20T14:22:55.110Z,101459.86
2022-10-20T14:25:28.779Z,101458.88
2022-10-20T14:28:05.223Z,101459.20
2022-10-20T14:30:45.303Z,101458.36
2022-10-20T14:33:24.043Z,101459.30
2022-10-20T14:35:58.896Z,101459.52
2022-10-20T14:38:35.557Z,101445.48
2022-10-20T14:41:09.723Z,101458.38
2022-10-20T14:43:44.571Z,101443.92
2022-10-20T14:46:24.307Z,101453.85
2022-10-20T14:48:56.702Z,101417.48
2022-10-20T14:51:37.297Z,101447.66
2022-10-20T14:54:28.324Z,101437.55
2022-10-20T14:57:02.013Z,101436.19
2022-10-20T14:59:38.488Z,101431.00
2022-10-20T15:02:18.343Z,101427.73
2022-10-20T15:04:52.038Z,101411.92
2022-10-20T15:07:28.133Z,101419.27
2022-10-20T15:10:07.483Z,101419.31
2022-10-20T15:12:45.783Z,101420.70
2022-10-20T15:15:24.960Z,101389.55
2022-10-20T15:18:15.077Z,101411.70
2022-10-20T15:20:47.941Z,101411.19
2022-10-20T15:23:21.436Z,101403.33
2022-10-20T15:25:57.074Z,101393.56
2022-10-20T15:28:45.035Z,101387.63
2022-10-20T15:31:23.876Z,101387.16
2022-10-20T15:33:57.035Z,101386.59
2022-10-20T15:36:33.726Z,101388.77
2022-10-20T15:39:06.705Z,101385.36
2022-10-20T15:41:39.530Z,101381.15
2022-10-20T15:44:16.934Z,101376.71
2022-10-20T15:46:50.805Z,101376.48
2022-10-20T15:49:23.966Z,101382.48
2022-10-20T15:51:56.522Z,101381.52
2022-10-20T15:54:28.710Z,101383.63
2022-10-20T15:57:00.763Z,101382.66
2022-10-20T15:59:32.761Z,101381.48
2022-10-20T16:02:04.795Z,101359.94
2022-10-20T16:04:36.985Z,101369.27
2022-10-20T16:07:09.254Z,101373.73
2022-10-20T16:09:41.477Z,101372.79
2022-10-20T16:12:13.761Z,101372.60
2022-10-20T16:14:45.970Z,101367.65
2022-10-20T16:17:18.278Z,101361.73
2022-10-20T16:19:50.475Z,101344.86
2022-10-20T16:22:23.134Z,101360.19
2022-10-20T16:24:56.481Z,101362.06
2022-10-20T16:27:28.878Z,101357.27
2022-10-20T16:30:01.271Z,101352.63
2022-10-20T16:32:35.351Z,101350.41
2022-10-20T16:35:09.115Z,101351.20
2022-10-20T16:37:41.324Z,101349.61
2022-10-20T16:40:19.550Z,101356.40
2022-10-20T16:42:51.634Z,101364.80
2022-10-20T16:48:00.932Z,101362.86
2022-10-20T16:50:33.385Z,101362.50
2022-10-20T16:53:05.808Z,101359.00
2022-10-20T16:55:37.853Z,101358.80
2022-10-20T16:58:09.865Z,101361.25
2022-10-20T17:00:43.260Z,101357.52
2022-10-20T17:03:20.121Z,101355.98
2022-10-20T17:05:58.585Z,101361.77
2022-10-20T17:08:32.540Z,101362.16
2022-10-20T17:11:07.898Z,101358.38
2022-10-20T17:13:41.501Z,101360.40
2022-10-20T17:16:16.053Z,101358.25
2022-10-20T17:18:48.672Z,101350.41
2022-10-20T17:21:21.041Z,101354.96
2022-10-20T17:23:53.311Z,101351.55
2022-10-20T17:26:27.456Z,101353.90
2022-10-20T17:29:01.363Z,101335.81
2022-10-20T17:31:36.499Z,101348.89
2022-10-20T17:34:09.915Z,101346.20
2022-10-20T17:36:43.600Z,101348.73
2022-10-20T17:39:18.097Z,101354.77
2022-10-20T17:41:50.563Z,101353.73
2022-10-20T17:44:22.671Z,101349.98
2022-10-20T17:46:55.206Z,101351.96
2022-10-20T17:49:28.029Z,101354.30
2022-10-20T17:51:59.979Z,101353.80
2022-10-20T17:54:32.141Z,101357.37
2022-10-20T17:57:04.230Z,101355.39
2022-10-20T17:59:47.292Z,101356.13
2022-10-20T18:02:25.520Z,101349.77
2022-10-20T18:04:57.545Z,101333.05
2022-10-20T18:07:29.912Z,101322.95
2022-10-20T18:10:02.760Z,101320.42
2022-10-20T18:12:35.507Z,101319.55
2022-10-20T18:15:08.934Z,101299.70
2022-10-20T18:17:41.371Z,101304.64
2022-10-20T18:20:13.917Z,101300.88
2022-10-20T18:22:46.371Z,101300.02
2022-10-20T18:25:18.873Z,101301.23
2022-10-20T18:27:51.012Z,101288.89
2022-10-20T18:30:23.227Z,101279.85
2022-10-20T18:32:55.230Z,101278.44
2022-10-20T18:35:28.210Z,101277.00
2022-10-20T18:38:00.271Z,101275.65
2022-10-20T18:40:32.716Z,101279.56
2022-10-20T18:43:04.847Z,101276.50
2022-10-20T18:45:37.107Z,101272.89
2022-10-20T18:48:09.972Z,101273.23
2022-10-20T18:50:43.924Z,101275.61
2022-10-20T18:53:16.284Z,101274.98
2022-10-20T18:55:48.392Z,101272.96
2022-10-20T18:58:20.431Z,101273.14
2022-10-20T19:01:01.667Z,101269.33
2022-10-20T19:03:34.577Z,101267.54
2022-10-20T19:06:08.703Z,101273.31
2022-10-20T19:08:41.922Z,101272.73
2022-10-20T19:11:16.891Z,101265.94
2022-10-20T19:13:49.500Z,101263.44
2022-10-20T19:16:23.796Z,101261.94
2022-10-20T19:18:57.879Z,101259.14
2022-10-20T19:21:31.564Z,101259.71
2022-10-20T19:24:06.203Z,101253.55
2022-10-20T19:26:40.388Z,101248.09
2022-10-20T19:29:14.099Z,101243.64
2022-10-20T19:31:48.811Z,101239.39
2022-10-20T19:34:23.360Z,101234.21
2022-10-20T19:36:56.966Z,101233.70
2022-10-20T19:39:32.221Z,101232.21
2022-10-20T19:42:07.110Z,101234.09
2022-10-20T19:44:39.920Z,101230.44
2022-10-20T19:47:12.855Z,101229.60
2022-10-20T19:49:45.425Z,101220.47
2022-10-20T19:52:19.179Z,101211.55
2022-10-20T19:54:51.438Z,101204.52
2022-10-20T19:57:29.489Z,101207.40
2022-10-20T20:00:03.721Z,101198.06
2022-10-20T20:02:39.655Z,101190.40
2022-10-20T20:05:13.618Z,101187.43
2022-10-20T20:07:48.119Z,101183.16
2022-10-20T20:10:27.154Z,101181.95
2022-10-20T20:13:01.950Z,101174.59
2022-10-20T20:15:37.427Z,101168.05
2022-10-20T20:18:12.243Z,101158.50
2022-10-20T20:20:46.860Z,101157.95
2022-10-20T20:23:29.801Z,101147.07
2022-10-20T20:26:10.411Z,101146.50
2022-10-20T20:28:44.790Z,101140.82
2022-10-20T20:31:17.633Z,101140.04
2022-10-20T20:33:50.615Z,101138.46
2022-10-20T20:36:23.041Z,101140.09
2022-10-20T20:38:57.376Z,101143.87
2022-10-20T20:41:31.911Z,101141.73
2022-10-20T20:44:08.010Z,101146.84
2022-10-20T20:46:41.161Z,101139.75
2022-10-20T20:49:14.198Z,101143.64
2022-10-20T20:51:46.751Z,101127.48
2022-10-20T20:54:19.338Z,101131.70
2022-10-20T20:56:51.522Z,101128.54
2022-10-20T20:59:23.550Z,101128.64
2022-10-20T21:01:55.538Z,101121.85
2022-10-20T21:04:30.658Z,101137.68
2022-10-20T21:07:03.241Z,101121.35
2022-10-20T21:09:35.901Z,101146.99
2022-10-20T21:12:08.254Z,101140.14
2022-10-20T21:14:40.267Z,101119.60
2022-10-20T21:17:12.549Z,101130.84
2022-10-20T21:19:44.580Z,101123.76
2022-10-20T21:22:17.032Z,101127.15
2022-10-20T21:24:49.105Z,101132.85
2022-10-20T21:27:21.091Z,101128.14
2022-10-20T21:29:53.157Z,101121.48
2022-10-20T21:32:27.351Z,101114.80
2022-10-20T21:34:59.485Z,101119.77
2022-10-20T21:37:31.998Z,101114.70
2022-10-20T21:40:04.151Z,101113.98
2022-10-20T21:42:36.699Z,101107.98
2022-10-20T21:45:10.037Z,101121.89
2022-10-20T21:47:43.851Z,101118.39
2022-10-20T21:50:16.038Z,101118.06
2022-10-20T21:52:51.967Z,101115.64
2022-10-20T21:55:24.309Z,101106.20
2022-10-20T21:57:56.484Z,101106.32
2022-10-20T22:00:28.514Z,101105.84
2022-10-20T22:03:00.462Z,101102.70
2022-10-20T22:05:32.542Z,101090.36
2022-10-20T22:08:04.513Z,101091.83
2022-10-20T22:10:38.903Z,101092.78
2022-10-20T22:13:11.066Z,101090.66
2022-10-20T22:15:43.093Z,101085.76
2022-10-20T22:18:15.395Z,101087.48
2022-10-20T22:20:47.429Z,101084.77
2022-10-20T22:23:19.666Z,101077.39
2022-10-20T22:25:55.420Z,101070.85
2022-10-20T22:28:27.451Z,101056.24
2022-10-20T22:33:38.093Z,101046.91
2022-10-20T22:36:11.008Z,101042.36
2022-10-20T22:38:42.901Z,101041.77
2022-10-20T22:41:15.372Z,101042.40
2022-10-20T22:43:47.490Z,101041.34
2022-10-20T22:46:19.862Z,101046.79
2022-10-20T22:48:51.948Z,101045.27
2022-10-20T22:51:24.215Z,101041.81
2022-10-20T22:53:56.429Z,101046.11
2022-10-20T22:56:28.427Z,101046.17
2022-10-20T22:59:00.793Z,101039.35
2022-10-20T23:01:32.915Z,101038.06
2022-10-20T23:04:04.948Z,101037.09
2022-10-20T23:06:37.215Z,101031.80
2022-10-20T23:09:10.751Z,101027.45
2022-10-20T23:11:42.844Z,101024.97
2022-10-20T23:14:16.894Z,101023.42
2022-10-20T23:16:49.599Z,101024.85
2022-10-20T23:19:21.734Z,101029.80
2022-10-20T23:21:54.201Z,101039.27
2022-10-20T23:24:26.394Z,101044.96
2022-10-20T23:26:58.852Z,101028.38
2022-10-20T23:29:31.054Z,101041.01
2022-10-20T23:32:03.315Z,101038.75
2022-10-20T23:34:35.480Z,101040.61
2022-10-20T23:37:07.686Z,101035.77
2022-10-20T23:39:39.639Z,101030.16
2022-10-20T23:42:11.763Z,101033.73
2022-10-20T23:44:43.762Z,101036.05
2022-10-20T23:47:16.479Z,101028.52
2022-10-20T23:49:50.787Z,101018.87
2022-10-20T23:52:22.827Z,101003.61
2022-10-20T23:54:55.066Z,101001.68
2022-10-20T23:57:27.054Z,100997.44
2022-10-20T23:59:59.147Z,100989.22
